Time;durP1;ratioP1;P1;durP2;ratioP2;P2;SDS_P1;SDS_P2;PMS_P1;PMS_P2;Temp;Humidity;BMP_temperature;BMP_pressure;BME280_temperature;BME280_humidity;BME280_pressure;Samples;Min_cycle;Max_cycle;Signal;HPM_P1;HPM_P2
2021/10/05 00:00:42;;;;;;;19.10;13.32;;;;;;;7.71;82.91;98299.68;1757789;81;21175;-80
2021/10/05 00:03:08;;;;;;;21.90;12.80;;;;;;;7.68;83.20;98303.70;1763111;81;21011;-81
2021/10/05 00:05:35;;;;;;;20.97;12.98;;;;;;;7.70;83.86;98301.90;1763698;81;20980;-82
2021/10/05 00:08:01;;;;;;;21.20;12.80;;;;;;;7.68;84.04;98303.23;1763188;81;21000;-79
2021/10/05 00:10:29;;;;;;;23.35;13.10;;;;;;;7.65;84.38;98306.78;1718954;81;20970;-81
2021/10/05 00:12:56;;;;;;;24.57;14.28;;;;;;;7.59;83.01;98307.30;1730805;83;21056;-81
2021/10/05 00:15:22;;;;;;;21.77;13.08;;;;;;;7.56;84.00;98305.58;1730757;83;21012;-81
2021/10/05 00:17:49;;;;;;;22.62;13.90;;;;;;;7.50;83.17;98308.30;1724578;81;20992;-81
2021/10/05 00:20:16;;;;;;;21.80;13.53;;;;;;;7.48;83.08;98299.08;1701492;84;21084;-81
2021/10/05 00:22:43;;;;;;;25.55;13.53;;;;;;;7.43;82.94;98298.73;1701437;84;20952;-80
2021/10/05 00:25:10;;;;;;;27.60;14.45;;;;;;;7.39;82.94;98298.75;1718582;83;21060;-80
2021/10/05 00:27:36;;;;;;;26.73;14.43;;;;;;;7.37;82.73;98299.66;1730141;83;21012;-80
2021/10/05 00:30:06;;;;;;;26.27;15.45;;;;;;;7.32;82.65;98293.14;1691390;83;21059;-81
2021/10/05 00:32:34;;;;;;;30.55;14.78;;;;;;;7.28;82.59;98295.81;1683550;85;21065;-81
2021/10/05 00:35:00;;;;;;;25.32;14.18;;;;;;;7.24;82.60;98290.59;1684207;84;21068;-81
2021/10/05 00:37:27;;;;;;;24.32;14.43;;;;;;;7.16;82.56;98302.97;1696148;84;21040;-81
2021/10/05 00:39:53;;;;;;;24.10;14.30;;;;;;;7.10;82.39;98299.95;1717560;83;21040;-81
2021/10/05 00:42:20;;;;;;;32.50;16.23;;;;;;;7.06;82.98;98303.97;1703152;83;20992;-82
2021/10/05 00:44:49;;;;;;;25.48;14.40;;;;;;;7.01;82.60;98303.99;1731814;83;21027;-81
2021/10/05 00:47:16;;;;;;;21.85;14.03;;;;;;;6.96;83.11;98307.13;1687786;83;21009;-81
2021/10/05 00:49:46;;;;;;;24.05;13.83;;;;;;;6.94;82.65;98313.72;1670596;86;21009;-81
2021/10/05 00:52:16;;;;;;;26.33;14.45;;;;;;;6.90;83.10;98314.66;1671562;83;21518;-81
2021/10/05 00:54:44;;;;;;;25.92;14.55;;;;;;;6.89;83.08;98311.58;1723567;83;20988;-81
2021/10/05 00:57:12;;;;;;;25.43;14.93;;;;;;;6.88;83.32;98308.98;1705823;83;21415;-81
2021/10/05 00:59:39;;;;;;;26.95;14.20;;;;;;;6.83;82.67;98310.33;1699649;84;21435;-81
2021/10/05 01:02:13;;;;;;;22.65;13.98;;;;;;;6.78;82.63;98316.97;1696827;83;21482;-81
2021/10/05 01:04:42;;;;;;;28.23;14.55;;;;;;;6.76;82.88;98309.97;1699839;84;21073;-81
2021/10/05 01:07:15;;;;;;;23.25;14.40;;;;;;;6.71;83.10;98319.20;1689064;85;21103;-81
2021/10/05 01:09:43;;;;;;;23.20;14.55;;;;;;;6.68;83.41;98319.25;1666630;86;21455;-81
2021/10/05 01:12:10;;;;;;;27.85;15.08;;;;;;;6.67;82.82;98320.11;1666844;86;21562;-81
2021/10/05 01:14:37;;;;;;;29.52;15.23;;;;;;;6.64;83.08;98323.65;1684891;85;20965;-81
2021/10/05 01:17:05;;;;;;;25.35;15.03;;;;;;;6.60;83.20;98318.86;1695153;84;21028;-82
2021/10/05 01:19:33;;;;;;;25.48;15.10;;;;;;;6.58;83.16;98321.08;1695123;85;21040;-81
2021/10/05 01:22:00;;;;;;;24.27;14.75;;;;;;;6.55;83.62;98315.39;1694940;85;21055;-82
2021/10/05 01:24:27;;;;;;;27.55;14.63;;;;;;;6.53;83.26;98317.17;1669580;85;21377;-81
2021/10/05 01:26:56;;;;;;;28.42;16.45;;;;;;;6.50;83.85;98314.98;1664162;86;21050;-81
2021/10/05 01:29:27;;;;;;;26.17;16.07;;;;;;;6.51;84.23;98320.25;1647358;84;21508;-81
2021/10/05 01:31:58;;;;;;;26.70;15.00;;;;;;;6.54;83.69;98312.77;1691182;85;21005;-80
2021/10/05 01:34:26;;;;;;;28.52;14.45;;;;;;;6.54;83.82;98316.28;1700904;83;21055;-80
2021/10/05 01:36:55;;;;;;;27.55;15.72;;;;;;;6.55;84.07;98319.34;1683843;83;21410;-80
2021/10/05 01:39:29;;;;;;;26.07;14.93;;;;;;;6.59;84.39;98311.85;1685317;83;21522;-81
2021/10/05 01:42:01;;;;;;;23.95;12.90;;;;;;;6.66;84.40;98324.95;1685358;84;21002;-82
2021/10/05 01:44:28;;;;;;;23.57;13.50;;;;;;;6.72;84.66;98312.61;1670388;83;21064;-82
2021/10/05 01:46:55;;;;;;;22.70;13.60;;;;;;;6.76;84.51;98316.55;1661946;85;20997;-80
2021/10/05 01:49:23;;;;;;;29.45;14.40;;;;;;;6.77;84.70;98313.88;1710054;83;21004;-81
2021/10/05 01:51:51;;;;;;;23.15;12.70;;;;;;;6.83;84.96;98320.43;1711313;83;21017;-82
2021/10/05 01:54:19;;;;;;;19.77;12.13;;;;;;;6.89;85.04;98314.67;1699522;83;21052;-82
2021/10/05 01:56:47;;;;;;;21.12;12.37;;;;;;;6.96;84.80;98321.18;1693709;84;21028;-82
2021/10/05 01:59:14;;;;;;;20.68;11.93;;;;;;;6.98;84.91;98322.03;1693796;83;21009;-82
2021/10/05 02:01:41;;;;;;;22.25;12.53;;;;;;;7.01;85.11;98326.39;1712780;83;21016;-82
2021/10/05 02:04:10;;;;;;;20.08;12.33;;;;;;;7.06;85.22;98329.00;1714936;83;20996;-82
2021/10/05 02:06:38;;;;;;;19.95;12.18;;;;;;;7.13;85.48;98325.40;1715520;83;21001;-82
2021/10/05 02:09:10;;;;;;;16.55;10.55;;;;;;;7.17;85.18;98325.80;1676350;85;21027;-82
2021/10/05 02:11:37;;;;;;;19.20;11.45;;;;;;;7.21;85.24;98330.59;1717672;83;21422;-82
2021/10/05 02:14:05;;;;;;;20.60;10.53;;;;;;;7.23;84.84;98323.09;1687302;83;21103;-82
2021/10/05 02:16:34;;;;;;;18.70;11.35;;;;;;;7.24;85.01;98322.66;1681518;83;21015;-82
2021/10/05 02:19:02;;;;;;;18.67;9.98;;;;;;;7.22;84.72;98317.40;1710926;84;21442;-82
2021/10/05 02:21:28;;;;;;;14.20;9.65;;;;;;;7.20;84.72;98322.26;1704514;83;20989;-83
2021/10/05 02:26:40;;;;;;;;;;;;;;;7.13;84.86;98322.77;1716837;82;21052;-82
2021/10/05 02:29:07;;;;;;;18.65;10.38;;;;;;;7.10;84.06;98324.13;1698106;84;20097;-83
2021/10/05 02:31:34;;;;;;;17.20;10.18;;;;;;;7.04;83.98;98316.27;1716161;83;21032;-82
2021/10/05 02:34:02;;;;;;;15.43;10.53;;;;;;;7.00;85.07;98322.02;1709099;83;21022;-82
2021/10/05 02:36:28;;;;;;;15.48;9.93;;;;;;;6.95;84.10;98331.30;1704105;84;21012;-82
2021/10/05 02:38:55;;;;;;;16.95;10.43;;;;;;;6.94;84.39;98331.31;1712082;83;21047;-82
2021/10/05 02:41:22;;;;;;;26.60;15.23;;;;;;;6.89;85.04;98337.92;1730261;82;21026;-82
2021/10/05 02:43:49;;;;;;;21.42;12.80;;;;;;;6.78;86.26;98338.04;1692301;85;20959;-82
2021/10/05 02:46:16;;;;;;;23.73;13.45;;;;;;;6.70;84.55;98344.69;1694780;83;21015;-82
2021/10/05 02:48:43;;;;;;;22.65;13.70;;;;;;;6.65;84.50;98350.44;1704144;84;20999;-82
2021/10/05 02:51:09;;;;;;;22.42;13.62;;;;;;;6.59;84.82;98348.72;1707116;84;21049;-82
2021/10/05 02:53:35;;;;;;;22.35;13.25;;;;;;;6.57;84.51;98343.03;1708178;83;21039;-83
2021/10/05 02:56:02;;;;;;;23.25;13.40;;;;;;;6.52;84.41;98337.78;1704119;84;21008;-83
2021/10/05 02:58:29;;;;;;;24.02;14.18;;;;;;;6.48;84.97;98345.30;1704003;84;22144;-83
2021/10/05 03:00:56;;;;;;;25.27;12.73;;;;;;;6.46;85.18;98346.63;1703912;84;21035;-82
2021/10/05 03:03:22;;;;;;;24.47;13.83;;;;;;;6.45;85.02;98344.85;1708273;83;21043;-82
2021/10/05 03:05:49;;;;;;;21.00;14.05;;;;;;;6.43;84.72;98353.22;1721516;83;21030;-82
2021/10/05 03:08:15;;;;;;;25.17;13.25;;;;;;;6.40;84.40;98351.06;1721518;83;21465;-82
2021/10/05 03:10:42;;;;;;;20.37;13.05;;;;;;;6.37;84.45;98356.33;1721812;83;21019;-81
2021/10/05 03:13:09;;;;;;;22.15;13.58;;;;;;;6.32;84.81;98354.59;1722950;82;21048;-81
2021/10/05 03:15:35;;;;;;;23.05;13.18;;;;;;;6.30;84.54;98345.85;1698844;83;20969;-81
2021/10/05 03:18:02;;;;;;;23.80;14.43;;;;;;;6.28;84.92;98340.16;1688109;85;20994;-81
2021/10/05 03:20:29;;;;;;;27.35;14.70;;;;;;;6.26;86.43;98344.12;1696414;85;21469;-81
2021/10/05 03:22:55;;;;;;;26.55;15.23;;;;;;;6.26;85.15;98343.23;1722535;82;21006;-81
2021/10/05 03:25:22;;;;;;;24.65;13.88;;;;;;;6.25;84.81;98349.39;1745981;82;21494;-81
2021/10/05 03:27:48;;;;;;;24.00;14.18;;;;;;;6.20;84.52;98345.02;1746555;82;20992;-82
2021/10/05 03:30:15;;;;;;;25.05;12.80;;;;;;;6.16;85.33;98337.17;1717965;83;21093;-83
2021/10/05 03:32:42;;;;;;;23.75;13.55;;;;;;;6.15;84.93;98338.91;1700757;84;21002;-82
2021/10/05 03:35:08;;;;;;;22.40;14.55;;;;;;;6.17;85.23;98333.64;1671732;84;21033;-82
2021/10/05 03:37:35;;;;;;;23.75;12.68;;;;;;;6.18;84.79;98337.59;1672062;86;21490;-83
2021/10/05 03:40:03;;;;;;;23.42;12.37;;;;;;;6.18;84.84;98333.64;1671939;84;21077;-82
2021/10/05 03:42:31;;;;;;;22.65;11.78;;;;;;;6.22;85.38;98331.86;1678069;85;21050;-82
2021/10/05 03:45:00;;;;;;;20.92;12.30;;;;;;;6.24;84.99;98341.95;1678927;84;21403;-82
2021/10/05 03:47:26;;;;;;;21.93;13.20;;;;;;;6.25;86.74;98338.86;1682629;84;21046;-82
2021/10/05 03:49:54;;;;;;;20.62;12.55;;;;;;;6.28;86.73;98346.75;1676690;84;21426;-82
2021/10/05 03:52:21;;;;;;;25.70;12.40;;;;;;;6.27;86.74;98345.86;1671498;86;21025;-82
2021/10/05 03:54:47;;;;;;;19.10;11.97;;;;;;;6.31;86.18;98337.06;1670697;86;21021;-82
2021/10/05 03:57:18;;;;;;;24.00;12.40;;;;;;;6.33;86.23;98334.00;1671798;84;20979;-82
2021/10/05 03:59:42;;;;;;;22.02;11.97;;;;;;;6.36;86.61;98333.53;1671194;86;21491;-82
2021/10/05 04:02:09;;;;;;;26.33;14.10;;;;;;;6.34;86.58;98333.53;1673540;84;20955;-81
2021/10/05 04:04:35;;;;;;;26.87;11.57;;;;;;;6.31;86.41;98326.53;1684672;84;21440;-82
2021/10/05 04:07:02;;;;;;;20.60;11.78;;;;;;;6.30;86.46;98339.27;1678599;84;21037;-82
2021/10/05 04:09:28;;;;;;;20.02;11.30;;;;;;;6.32;86.46;98345.39;1682475;84;21030;-84
2021/10/05 04:11:55;;;;;;;23.85;12.95;;;;;;;6.32;86.56;98334.00;1671467;86;21038;-83
2021/10/05 04:14:22;;;;;;;23.40;13.98;;;;;;;6.30;86.22;98347.59;1680290;84;21074;-82
2021/10/05 04:16:48;;;;;;;21.07;13.00;;;;;;;6.27;86.12;98343.69;1685576;85;21046;-81
2021/10/05 04:19:15;;;;;;;22.10;13.15;;;;;;;6.23;85.94;98344.59;1698353;84;21451;-81
2021/10/05 04:21:42;;;;;;;23.02;12.90;;;;;;;6.21;85.75;98347.23;1702145;84;21020;-82
2021/10/05 04:24:09;;;;;;;24.50;13.53;;;;;;;6.16;85.74;98345.95;1702115;84;21005;-82
2021/10/05 04:26:36;;;;;;;25.68;12.75;;;;;;;6.13;85.75;98341.13;1680150;84;20990;-82
2021/10/05 04:29:02;;;;;;;25.08;14.53;;;;;;;6.09;85.23;98352.12;1671092;86;21097;-82
2021/10/05 04:31:29;;;;;;;35.25;17.00;;;;;;;6.03;85.61;98355.64;1672702;85;21418;-82
2021/10/05 04:33:56;;;;;;;30.40;15.72;;;;;;;6.02;85.52;98359.59;1673891;86;21024;-82
2021/10/05 04:36:23;;;;;;;32.83;16.45;;;;;;;6.01;85.28;98357.39;1687562;84;21014;-82
2021/10/05 04:38:49;;;;;;;30.60;16.93;;;;;;;5.96;85.69;98357.86;1693953;85;21049;-82
2021/10/05 04:41:16;;;;;;;34.08;17.48;;;;;;;5.91;85.36;98354.37;1665006;86;21399;-81
2021/10/05 04:43:42;;;;;;;34.15;16.32;;;;;;;5.87;85.12;98361.42;1666586;85;21064;-81
2021/10/05 04:46:09;;;;;;;32.30;17.55;;;;;;;5.84;85.12;98355.27;1669897;86;21040;-81
2021/10/05 04:48:36;;;;;;;28.45;16.02;;;;;;;5.81;85.47;98365.37;1671635;85;21397;-81
2021/10/05 04:51:02;;;;;;;31.40;16.77;;;;;;;5.79;85.17;98357.94;1684114;85;21031;-82
2021/10/05 04:53:29;;;;;;;32.58;16.02;;;;;;;5.77;85.75;98362.34;1684056;85;20995;-82
2021/10/05 04:55:55;;;;;;;27.25;16.02;;;;;;;5.73;87.94;98363.23;1691403;85;21026;-82
2021/10/05 04:58:22;;;;;;;30.82;17.07;;;;;;;5.69;86.00;98363.66;1695584;85;21009;-81
2021/10/05 05:00:50;;;;;;;40.85;19.80;;;;;;;5.68;85.73;98364.55;1681115;85;21020;-82
2021/10/05 05:03:16;;;;;;;39.15;19.87;;;;;;;5.68;86.19;98360.60;1665154;86;20993;-81
2021/10/05 05:05:43;;;;;;;33.18;18.85;;;;;;;5.67;85.67;98359.75;1664987;86;21482;-81
2021/10/05 05:08:09;;;;;;;36.33;17.67;;;;;;;5.68;85.64;98347.45;1665442;85;21212;-81
2021/10/05 05:10:36;;;;;;;35.10;18.27;;;;;;;5.69;85.77;98361.03;1671646;85;21044;-80
2021/10/05 05:13:02;;;;;;;40.98;20.08;;;;;;;5.71;85.86;98359.72;1681304;85;21042;-81
2021/10/05 05:15:29;;;;;;;36.55;20.80;;;;;;;5.70;85.67;98361.92;1684181;85;22224;-81
2021/10/05 05:17:55;;;;;;;45.45;22.05;;;;;;;5.69;85.73;98359.72;1684235;85;21035;-81
2021/10/05 05:20:21;;;;;;;41.75;22.20;;;;;;;5.69;86.34;98366.28;1683999;85;21003;-81
2021/10/05 05:22:48;;;;;;;38.73;21.70;;;;;;;5.70;85.84;98369.37;1684112;85;21495;-81
2021/10/05 05:25:14;;;;;;;38.13;20.70;;;;;;;5.72;86.01;98369.37;1669568;85;21012;-81
2021/10/05 05:27:41;;;;;;;40.45;21.00;;;;;;;5.74;86.08;98371.13;1665040;86;21044;-81
2021/10/05 05:30:09;;;;;;;38.00;20.50;;;;;;;5.79;86.42;98378.98;1674329;83;21004;-81
2021/10/05 05:32:35;;;;;;;31.10;19.32;;;;;;;5.82;86.84;98368.45;1693665;83;21493;-81
2021/10/05 05:35:03;;;;;;;34.92;19.40;;;;;;;5.85;86.41;98373.69;1712748;83;21008;-81
2021/10/05 05:37:29;;;;;;;28.57;16.93;;;;;;;5.88;86.28;98365.79;1724547;83;21005;-81
2021/10/05 05:39:56;;;;;;;25.52;15.53;;;;;;;5.92;86.57;98358.32;1725671;83;20990;-81
2021/10/05 05:42:22;;;;;;;20.77;13.38;;;;;;;5.98;86.66;98366.60;1692565;82;21045;-81
2021/10/05 05:44:50;;;;;;;32.30;15.50;;;;;;;6.04;86.25;98364.42;1712614;82;21011;-81
2021/10/05 05:47:17;;;;;;;26.15;14.68;;;;;;;6.09;86.11;98360.47;1696363;82;20959;-80
2021/10/05 05:49:43;;;;;;;23.83;15.20;;;;;;;6.14;86.63;98360.86;1708320;84;21067;-81
2021/10/05 05:52:09;;;;;;;26.65;15.13;;;;;;;6.20;86.98;98370.48;1710037;82;21516;-81
2021/10/05 05:54:36;;;;;;;25.75;15.43;;;;;;;6.24;87.60;98368.27;1722412;82;21019;-81
2021/10/05 05:57:03;;;;;;;29.10;16.27;;;;;;;6.33;86.79;98370.85;1725479;82;21002;-81
2021/10/05 05:59:30;;;;;;;37.55;18.73;;;;;;;6.42;86.28;98358.48;1725457;83;21061;-81
2021/10/05 06:01:56;;;;;;;31.65;19.87;;;;;;;6.52;86.37;98363.27;1711876;82;21031;-82
2021/10/05 06:04:23;;;;;;;30.35;18.05;;;;;;;6.64;86.28;98362.30;1708414;84;21027;-81
2021/10/05 06:06:49;;;;;;;31.00;18.75;;;;;;;6.73;86.66;98357.81;1694582;84;21090;-81
2021/10/05 06:09:16;;;;;;;29.12;17.95;;;;;;;6.85;86.48;98356.84;1679587;85;21020;-81
2021/10/05 06:11:43;;;;;;;32.03;19.92;;;;;;;6.97;86.93;98364.20;1676716;83;21022;-82
2021/10/05 06:14:09;;;;;;;30.05;18.98;;;;;;;7.10;86.50;98361.03;1674086;86;21064;-82
2021/10/05 06:16:36;;;;;;;37.17;19.48;;;;;;;7.26;86.97;98365.69;1695703;84;20952;-82
2021/10/05 06:19:02;;;;;;;38.45;21.62;;;;;;;7.40;86.91;98367.73;1711428;82;21002;-82
2021/10/05 06:21:29;;;;;;;34.27;21.90;;;;;;;7.52;87.18;98360.13;1698032;83;21022;-81
2021/10/05 06:23:56;;;;;;;33.13;20.32;;;;;;;7.66;87.15;98374.94;1713182;83;21059;-80
2021/10/05 06:26:22;;;;;;;50.65;23.22;;;;;;;7.78;86.95;98378.73;1735696;81;20949;-82
2021/10/05 06:28:49;;;;;;;30.43;19.95;;;;;;;7.91;86.86;98381.23;1693784;84;21477;-82
2021/10/05 06:31:15;;;;;;;32.17;19.15;;;;;;;8.02;86.78;98382.42;1708145;82;20988;-82
2021/10/05 06:33:41;;;;;;;31.15;17.67;;;;;;;8.13;86.88;98387.11;1705040;83;20960;-79
2021/10/05 06:36:09;;;;;;;33.63;19.07;;;;;;;8.23;86.50;98389.20;1699183;83;21017;-78
2021/10/05 06:38:36;;;;;;;35.92;20.92;;;;;;;8.32;86.48;98390.83;1682641;84;21036;-78
2021/10/05 06:41:03;;;;;;;32.90;20.12;;;;;;;8.42;86.37;98387.59;1690745;84;21468;-78
2021/10/05 06:43:29;;;;;;;35.35;19.55;;;;;;;8.51;85.97;98382.17;1689359;83;21046;-78
2021/10/05 06:45:56;;;;;;;37.40;20.55;;;;;;;8.57;85.81;98384.78;1706671;83;21008;-79
2021/10/05 06:48:22;;;;;;;35.73;20.88;;;;;;;8.64;85.49;98373.64;1710725;83;21009;-78
2021/10/05 06:50:49;;;;;;;34.10;19.82;;;;;;;8.70;85.24;98377.97;1710981;83;21030;-78
2021/10/05 06:53:16;;;;;;;37.53;22.75;;;;;;;8.76;85.19;98381.83;1710630;83;21433;-78
2021/10/05 06:55:46;;;;;;;45.30;22.05;;;;;;;8.81;84.94;98381.30;1717791;82;21418;-79
2021/10/05 06:58:15;;;;;;;39.08;21.40;;;;;;;8.88;84.72;98387.36;1680526;85;21027;-80
2021/10/05 07:00:41;;;;;;;44.53;22.87;;;;;;;8.95;84.50;98381.53;1680488;85;21150;-82
2021/10/05 07:03:08;;;;;;;37.20;22.32;;;;;;;9.03;84.34;98383.60;1697692;83;21259;-79
2021/10/05 07:05:35;;;;;;;41.80;22.73;;;;;;;9.13;84.24;98380.80;1694630;83;21093;-79
2021/10/05 07:08:07;;;;;;;37.75;20.75;;;;;;;9.20;83.94;98375.81;1742983;82;21039;-79
2021/10/05 07:10:37;;;;;;;34.00;21.40;;;;;;;9.29;83.78;98379.62;1750582;82;21029;-83
2021/10/05 07:13:05;;;;;;;33.78;22.37;;;;;;;9.38;83.46;98375.92;1727332;82;21508;-82
2021/10/05 07:15:32;;;;;;;35.70;21.87;;;;;;;9.49;83.31;98379.27;1720790;82;21051;-80
2021/10/05 07:17:58;;;;;;;31.70;21.27;;;;;;;9.58;83.09;98387.47;1686072;83;21470;-81
2021/10/05 07:20:28;;;;;;;39.85;20.43;;;;;;;9.67;83.10;98381.11;1688938;83;21047;-81
2021/10/05 07:22:56;;;;;;;35.17;20.68;;;;;;;9.79;82.98;98386.61;1683718;85;21077;-80
2021/10/05 07:25:23;;;;;;;33.33;20.55;;;;;;;9.89;82.72;98374.93;1679911;83;21038;-81
2021/10/05 07:27:51;;;;;;;31.73;19.23;;;;;;;10.03;82.76;98379.08;1664863;86;21063;-82
2021/10/05 07:30:23;;;;;;;29.23;19.23;;;;;;;10.14;82.59;98375.73;1664900;86;20997;-82
2021/10/05 07:32:52;;;;;;;31.35;20.65;;;;;;;10.26;82.46;98374.59;1650595;85;21463;-80
2021/10/05 07:35:19;;;;;;;30.08;19.37;;;;;;;10.38;82.23;98371.27;1711622;83;21009;-79
2021/10/05 07:37:46;;;;;;;32.65;17.70;;;;;;;10.48;81.92;98375.48;1654648;87;21521;-80
2021/10/05 07:40:16;;;;;;;29.55;16.02;;;;;;;10.58;82.00;98368.17;1675446;85;21091;-79
2021/10/05 07:42:43;;;;;;;26.15;15.60;;;;;;;10.70;81.88;98378.94;1705261;83;21849;-79
2021/10/05 07:45:10;;;;;;;25.88;13.68;;;;;;;10.83;81.78;98380.84;1710868;83;22170;-77
2021/10/05 07:47:37;;;;;;;21.37;14.00;;;;;;;10.96;81.64;98385.37;1694293;83;21080;-77
2021/10/05 07:50:05;;;;;;;57.98;34.67;;;;;;;11.11;81.44;98382.81;1718646;83;21036;-79
2021/10/05 07:52:31;;;;;;;68.07;40.55;;;;;;;11.27;81.20;98375.33;1730103;83;21060;-78
2021/10/05 07:54:58;;;;;;;20.00;13.22;;;;;;;11.40;80.98;98375.88;1721882;83;21000;-78
2021/10/05 07:57:24;;;;;;;23.35;13.38;;;;;;;11.52;80.64;98372.46;1659385;85;20984;-78
2021/10/05 07:59:52;;;;;;;23.20;12.85;;;;;;;11.66;80.26;98370.30;1694687;83;21039;-78
2021/10/05 08:02:19;;;;;;;17.10;12.07;;;;;;;11.80;79.42;98366.39;1665880;84;21053;-78
2021/10/05 08:04:45;;;;;;;26.02;12.95;;;;;;;11.94;79.50;98364.65;1682661;85;21048;-78
2021/10/05 08:07:12;;;;;;;20.82;11.78;;;;;;;12.06;79.33;98357.70;1682542;85;21000;-78
2021/10/05 08:09:38;;;;;;;15.60;10.72;;;;;;;12.18;78.59;98358.23;1718779;83;21005;-78
2021/10/05 08:12:05;;;;;;;12.53;8.80;;;;;;;12.30;78.47;98353.01;1712967;83;21051;-79
2021/10/05 08:14:32;;;;;;;14.50;9.60;;;;;;;12.42;77.92;98351.31;1681837;85;21021;-79
2021/10/05 08:17:00;;;;;;;17.50;11.70;;;;;;;12.56;77.36;98353.97;1694171;85;21556;-79
2021/10/05 08:19:30;;;;;;;14.00;8.80;;;;;;;12.70;76.36;98355.72;1715746;83;20961;-79
2021/10/05 08:21:56;;;;;;;15.63;9.15;;;;;;;12.84;75.32;98354.41;1722724;83;21012;-77
2021/10/05 08:24:23;;;;;;;11.15;7.95;;;;;;;12.97;76.10;98354.86;1723133;83;21059;-78
2021/10/05 08:26:49;;;;;;;10.58;7.70;;;;;;;13.09;75.76;98353.58;1722987;83;21032;-78
2021/10/05 08:29:18;;;;;;;12.13;7.10;;;;;;;13.21;74.61;98349.19;1695275;83;21454;-78
2021/10/05 08:31:48;;;;;;;11.80;7.55;;;;;;;13.34;73.65;98350.95;1695425;84;21048;-80
2021/10/05 08:34:16;;;;;;;9.58;6.70;;;;;;;13.48;72.50;98352.27;1709016;84;21056;-78
2021/10/05 08:36:44;;;;;;;10.78;6.37;;;;;;;13.58;72.26;98342.57;1716944;83;22263;-80
2021/10/05 08:39:14;;;;;;;11.40;7.42;;;;;;;13.69;71.07;98334.20;1722358;83;21129;-81
2021/10/05 08:41:39;;;;;;;12.45;7.08;;;;;;;13.80;70.83;98335.14;1722379;83;21039;-80
2021/10/05 08:44:06;;;;;;;8.63;6.30;;;;;;;13.88;69.03;98328.64;1695256;83;20982;-79
2021/10/05 08:46:38;;;;;;;13.95;6.70;;;;;;;14.03;66.85;98332.53;1683793;85;20963;-80
2021/10/05 08:49:06;;;;;;;9.60;6.37;;;;;;;14.15;69.40;98336.52;1690402;83;20990;-80
2021/10/05 08:51:33;;;;;;;12.50;7.12;;;;;;;14.21;68.90;98333.61;1694632;84;21009;-80
2021/10/05 08:54:00;;;;;;;9.78;6.80;;;;;;;14.29;68.05;98341.30;1694388;84;21052;-80
2021/10/05 08:56:27;;;;;;;9.00;6.17;;;;;;;14.36;67.43;98342.78;1705953;83;21044;-80
2021/10/05 08:58:53;;;;;;;12.23;7.87;;;;;;;14.42;66.47;98338.56;1723022;83;21000;-80
2021/10/05 09:01:20;;;;;;;12.37;7.08;;;;;;;14.51;67.25;98338.20;1721272;83;21425;-80
2021/10/05 09:03:55;;;;;;;10.63;7.15;;;;;;;14.59;66.42;98335.67;1721059;83;21115;-80
2021/10/05 09:06:23;;;;;;;10.93;7.42;;;;;;;14.68;66.25;98331.75;1694409;84;21516;-79
2021/10/05 09:08:53;;;;;;;10.78;6.90;;;;;;;14.75;65.95;98323.91;1694402;84;21053;-79
2021/10/05 09:11:24;;;;;;;12.73;6.83;;;;;;;14.82;64.51;98332.57;1695474;83;21036;-79
2021/10/05 09:13:57;;;;;;;8.20;6.70;;;;;;;14.88;65.82;98333.64;1694044;85;21099;-79
2021/10/05 09:16:28;;;;;;;9.93;7.13;;;;;;;14.94;64.86;98331.19;1694491;85;21043;-79
2021/10/05 09:19:09;;;;;;;15.85;10.82;;;;;;;15.02;65.32;98319.25;1693802;84;21099;-79
2021/10/05 09:21:48;;;;;;;21.20;12.53;;;;;;;15.08;64.85;98318.13;1706445;83;20969;-79
2021/10/05 09:24:35;;;;;;;23.67;15.13;;;;;;;15.15;63.99;98320.92;1723614;83;21082;-79
2021/10/05 09:27:05;;;;;;;14.10;6.75;;;;;;;15.23;63.75;98320.59;1723310;83;21441;-79
2021/10/05 09:29:35;;;;;;;8.55;6.22;;;;;;;15.34;63.67;98317.45;1723404;83;21027;-79
2021/10/05 09:32:09;;;;;;;9.15;5.90;;;;;;;15.45;62.77;98307.64;1708746;83;21094;-80
2021/10/05 09:34:54;;;;;;;11.05;6.08;;;;;;;15.56;63.03;98311.14;1694049;85;21067;-80
2021/10/05 09:37:32;;;;;;;8.73;5.90;;;;;;;15.67;61.60;98303.98;1670874;84;21062;-81
2021/10/05 09:40:12;;;;;;;8.45;5.58;;;;;;;15.79;62.65;98316.80;1665033;86;21061;-80
2021/10/05 09:42:45;;;;;;;8.98;5.62;;;;;;;15.93;62.28;98311.27;1639825;86;21064;-80
2021/10/05 09:45:19;;;;;;;7.80;5.75;;;;;;;16.04;61.70;98310.35;1645375;87;21479;-80
2021/10/05 09:47:55;;;;;;;10.55;6.17;;;;;;;16.15;61.28;98309.82;1666499;86;21105;-79
2021/10/05 09:50:32;;;;;;;29.07;19.67;;;;;;;16.26;57.87;98314.66;1682057;85;21524;-79
2021/10/05 09:53:04;;;;;;;10.55;7.00;;;;;;;16.45;60.29;98307.95;1693958;85;21042;-80
2021/10/05 09:55:35;;;;;;;7.17;5.10;;;;;;;16.61;57.34;98314.76;1694107;85;21512;-80
2021/10/05 09:58:04;;;;;;;9.28;4.95;;;;;;;16.75;57.20;98313.22;1693775;84;20972;-81
2021/10/05 10:00:36;;;;;;;6.70;5.50;;;;;;;16.88;56.66;98306.77;1676987;85;21054;-80
2021/10/05 10:03:06;;;;;;;10.90;5.92;;;;;;;16.99;55.71;98299.54;1666171;86;21046;-79
2021/10/05 10:05:40;;;;;;;8.15;5.58;;;;;;;17.13;55.30;98307.77;1666186;85;21035;-80
2021/10/05 10:08:08;;;;;;;6.17;5.15;;;;;;;17.26;56.92;98305.31;1661126;85;21087;-81
2021/10/05 10:10:38;;;;;;;9.88;6.12;;;;;;;17.36;55.00;98306.17;1677662;85;21000;-79
2021/10/05 10:13:11;;;;;;;8.78;5.28;;;;;;;17.46;56.08;98303.86;1694008;85;21631;-83
2021/10/05 10:15:41;;;;;;;9.57;5.30;;;;;;;17.54;56.09;98305.67;1694084;84;21023;-82
2021/10/05 10:18:15;;;;;;;9.40;5.05;;;;;;;17.58;55.66;98301.00;1693838;85;21386;-81
2021/10/05 10:20:45;;;;;;;8.88;4.92;;;;;;;17.64;54.58;98299.33;1685835;84;21003;-82
2021/10/05 10:23:24;;;;;;;9.35;4.85;;;;;;;17.71;53.89;98306.10;1665943;86;21079;-80
2021/10/05 10:25:58;;;;;;;9.35;5.35;;;;;;;17.83;54.34;98307.72;1666045;86;21060;-81
2021/10/05 10:28:30;;;;;;;6.45;5.08;;;;;;;18.26;53.79;98308.06;1666778;85;21500;-84
2021/10/05 10:31:01;;;;;;;8.23;5.20;;;;;;;19.25;52.84;98303.31;1713310;83;21016;-85
2021/10/05 10:33:31;;;;;;;9.88;5.30;;;;;;;20.35;50.24;98298.36;1710478;83;21494;-82
2021/10/05 10:35:59;;;;;;;8.08;5.20;;;;;;;21.44;49.41;98291.61;1696176;84;20962;-83
2021/10/05 10:38:31;;;;;;;9.95;5.62;;;;;;;22.42;45.39;98288.73;1688130;84;21006;-80
2021/10/05 10:40:59;;;;;;;10.00;5.50;;;;;;;23.19;43.68;98290.23;1638998;86;21033;-82
2021/10/05 10:43:28;;;;;;;8.25;6.30;;;;;;;24.19;44.03;98291.09;1636013;87;21045;-82
2021/10/05 10:45:59;;;;;;;11.80;6.12;;;;;;;25.05;41.65;98289.88;1636026;88;21592;-82
2021/10/05 10:48:37;;;;;;;12.82;8.18;;;;;;;25.71;38.92;98284.34;1640884;86;21012;-82
2021/10/05 10:51:20;;;;;;;10.65;7.67;;;;;;;26.38;38.37;98285.75;1663591;86;21065;-83
2021/10/05 10:53:48;;;;;;;11.33;7.72;;;;;;;27.09;37.34;98286.56;1687542;85;20948;-82
2021/10/05 10:56:30;;;;;;;7.80;6.03;;;;;;;27.58;33.66;98278.33;1661249;86;21044;-83
2021/10/05 10:59:08;;;;;;;12.75;5.37;;;;;;;28.01;33.72;98286.08;1687768;85;21015;-83
2021/10/05 11:01:41;;;;;;;11.05;6.03;;;;;;;28.58;33.75;98290.53;1688145;85;20990;-82
2021/10/05 11:04:10;;;;;;;8.40;5.37;;;;;;;28.93;31.83;98277.95;1663548;86;21040;-81
2021/10/05 11:06:38;;;;;;;8.23;5.62;;;;;;;29.34;32.78;98265.66;1656733;85;21019;-82
2021/10/05 11:09:06;;;;;;;11.83;5.83;;;;;;;29.95;32.00;98263.00;1631169;88;21028;-83
2021/10/05 11:11:42;;;;;;;7.80;6.15;;;;;;;30.22;29.70;98255.61;1630994;86;21141;-80
2021/10/05 11:14:16;;;;;;;9.03;5.97;;;;;;;30.60;28.84;98255.72;1637516;86;21012;-80
2021/10/05 11:16:42;;;;;;;6.65;5.50;;;;;;;30.64;27.88;98250.27;1649813;85;21493;-80
2021/10/05 11:19:16;;;;;;;9.65;5.80;;;;;;;30.77;27.63;98245.69;1687801;85;21460;-81
2021/10/05 11:21:46;;;;;;;6.90;5.70;;;;;;;31.09;28.11;98242.61;1663492;86;21494;-81
2021/10/05 11:24:15;;;;;;;9.03;5.78;;;;;;;31.31;26.78;98236.97;1685724;85;20980;-81
2021/10/05 11:26:50;;;;;;;8.65;5.90;;;;;;;31.47;27.71;98241.58;1652639;86;21450;-81
2021/10/05 11:29:29;;;;;;;8.63;5.72;;;;;;;31.63;27.10;98233.50;1687868;85;21390;-81
2021/10/05 11:32:06;;;;;;;10.58;5.50;;;;;;;31.58;26.03;98237.62;1653995;85;21252;-82
2021/10/05 11:34:37;;;;;;;8.73;6.17;;;;;;;30.67;27.06;98237.09;1673706;85;20991;-81